createdAt,value
2017-12-19T00:00:18.311Z,15.63
2017-12-19T00:03:23.114Z,17.10
2017-12-19T00:06:29.270Z,18.53
2017-12-19T00:09:35.382Z,16.90
2017-12-19T00:12:41.150Z,18.53
2017-12-19T00:15:46.468Z,19.97
2017-12-19T00:18:52.450Z,18.37
2017-12-19T00:21:58.661Z,17.00
2017-12-19T00:25:04.084Z,17.17
2017-12-19T00:28:10.495Z,17.40
2017-12-19T00:31:16.010Z,16.77
2017-12-19T00:34:21.439Z,17.00
2017-12-19T00:37:26.398Z,18.00
2017-12-19T00:40:31.433Z,17.23
2017-12-19T00:43:37.191Z,16.63
2017-12-19T00:46:42.918Z,17.27
2017-12-19T00:49:48.562Z,18.10
2017-12-19T00:52:54.042Z,17.77
2017-12-19T00:55:59.639Z,18.07
2017-12-19T00:59:05.994Z,19.63
2017-12-19T01:02:11.689Z,16.13
2017-12-19T01:05:17.083Z,16.80
2017-12-19T01:08:21.963Z,17.70
2017-12-19T01:11:27.006Z,17.70
2017-12-19T01:14:32.259Z,17.67
2017-12-19T01:17:38.291Z,16.77
2017-12-19T01:20:44.038Z,17.10
2017-12-19T01:23:50.667Z,18.23
2017-12-19T01:26:56.566Z,18.63
2017-12-19T01:30:01.923Z,19.07
2017-12-19T01:33:07.154Z,18.10
2017-12-19T01:36:12.756Z,18.77
2017-12-19T01:39:17.904Z,20.27
2017-12-19T01:42:23.652Z,19.53
2017-12-19T01:45:30.029Z,18.53
2017-12-19T01:48:35.246Z,17.40
2017-12-19T01:51:40.274Z,18.57
2017-12-19T01:54:46.019Z,19.23
2017-12-19T01:57:51.156Z,21.33
2017-12-19T02:00:56.869Z,19.13
2017-12-19T02:04:02.257Z,20.53
2017-12-19T02:07:07.421Z,20.13
2017-12-19T02:10:12.395Z,19.50
2017-12-19T02:13:18.062Z,21.47
2017-12-19T02:16:23.124Z,19.37
2017-12-19T02:19:28.142Z,17.10
2017-12-19T02:22:33.274Z,18.30
2017-12-19T02:25:38.587Z,17.90
2017-12-19T02:28:44.472Z,17.83
2017-12-19T02:31:50.160Z,16.37
2017-12-19T02:34:55.948Z,16.80
2017-12-19T02:38:01.650Z,17.50
2017-12-19T02:41:06.834Z,16.10
2017-12-19T02:44:12.233Z,17.63
2017-12-19T02:47:17.956Z,18.10
2017-12-19T02:50:23.404Z,15.83
2017-12-19T02:53:29.180Z,17.90
2017-12-19T02:56:35.869Z,17.50
2017-12-19T02:59:41.310Z,17.83
2017-12-19T03:02:46.474Z,18.30
2017-12-19T03:05:52.805Z,20.10
2017-12-19T03:08:58.421Z,17.80
2017-12-19T03:12:04.302Z,20.20
2017-12-19T03:15:09.770Z,16.57
2017-12-19T03:18:15.516Z,17.93
2017-12-19T03:21:22.042Z,17.47
2017-12-19T03:24:27.908Z,17.73
2017-12-19T03:27:33.765Z,17.43
2017-12-19T03:30:38.865Z,17.27
2017-12-19T03:33:45.451Z,16.73
2017-12-19T03:36:51.452Z,16.90
2017-12-19T03:39:56.861Z,16.40
2017-12-19T03:43:02.374Z,17.67
2017-12-19T03:46:07.817Z,16.80
2017-12-19T03:49:13.622Z,17.70
2017-12-19T03:52:18.911Z,16.70
2017-12-19T03:55:25.466Z,16.10
2017-12-19T03:58:30.986Z,16.77
2017-12-19T04:01:36.268Z,16.87
2017-12-19T04:04:41.665Z,17.13
2017-12-19T04:07:48.319Z,14.83
2017-12-19T04:10:53.150Z,16.80
2017-12-19T04:13:58.865Z,17.17
2017-12-19T04:17:04.646Z,17.70
2017-12-19T04:20:10.102Z,17.73
2017-12-19T04:23:15.598Z,18.40
2017-12-19T04:26:22.084Z,16.30
2017-12-19T04:29:27.974Z,15.40
2017-12-19T04:32:33.106Z,18.27
2017-12-19T04:35:38.103Z,16.93
2017-12-19T04:38:42.931Z,17.23
2017-12-19T04:41:49.278Z,16.50
2017-12-19T04:44:54.447Z,16.40
2017-12-19T04:48:00.805Z,17.70
2017-12-19T04:51:05.875Z,17.47
2017-12-19T04:54:10.654Z,16.00
2017-12-19T04:57:16.074Z,16.20
2017-12-19T05:00:21.186Z,17.40
2017-12-19T05:03:26.061Z,17.40
2017-12-19T05:06:30.954Z,17.40
2017-12-19T05:09:36.949Z,16.80
2017-12-19T05:12:42.561Z,16.40
2017-12-19T05:15:47.926Z,16.47
2017-12-19T05:18:52.874Z,18.03
2017-12-19T05:21:58.485Z,17.20
2017-12-19T05:25:03.376Z,17.37
2017-12-19T05:28:08.336Z,16.97
2017-12-19T05:31:13.556Z,17.40
2017-12-19T05:34:18.682Z,19.20
2017-12-19T05:37:24.058Z,16.57
2017-12-19T05:40:30.667Z,16.80
2017-12-19T05:43:35.888Z,16.93
2017-12-19T05:46:41.386Z,17.57
2017-12-19T05:49:46.966Z,16.73
2017-12-19T05:52:52.730Z,16.30
2017-12-19T05:55:57.735Z,16.90
2017-12-19T05:59:03.422Z,18.63
2017-12-19T06:02:08.755Z,18.30
2017-12-19T06:05:13.942Z,17.60
2017-12-19T06:08:20.293Z,19.03
2017-12-19T06:11:26.074Z,17.40
2017-12-19T06:14:30.946Z,17.07
2017-12-19T06:17:36.907Z,17.87
2017-12-19T06:20:42.833Z,18.03
2017-12-19T06:23:48.096Z,19.73
2017-12-19T06:26:54.622Z,17.87
2017-12-19T06:30:00.126Z,18.13
2017-12-19T06:33:05.748Z,18.30
2017-12-19T06:36:11.726Z,19.37
2017-12-19T06:39:18.234Z,17.87
2017-12-19T06:42:23.333Z,17.90
2017-12-19T06:45:28.494Z,18.87
2017-12-19T06:48:34.379Z,16.63
2017-12-19T06:51:40.491Z,18.87
2017-12-19T06:54:46.215Z,16.63
2017-12-19T06:57:51.770Z,17.73
2017-12-19T07:00:58.006Z,16.27
2017-12-19T07:04:04.294Z,16.30
2017-12-19T07:07:09.290Z,17.30
2017-12-19T07:10:15.134Z,16.07
2017-12-19T07:13:20.510Z,16.67
2017-12-19T07:16:25.530Z,16.30
2017-12-19T07:19:30.526Z,17.13
2017-12-19T07:22:35.585Z,15.77
2017-12-19T07:25:41.793Z,17.83
2017-12-19T07:28:47.366Z,15.07
2017-12-19T07:31:53.675Z,16.57
2017-12-19T07:34:58.670Z,15.73
2017-12-19T07:38:04.326Z,16.73
2017-12-19T07:41:09.722Z,17.70
2017-12-19T07:44:15.362Z,17.30
2017-12-19T07:47:20.710Z,17.80
2017-12-19T07:50:26.454Z,18.73
2017-12-19T07:53:32.257Z,33.53
2017-12-19T07:56:37.386Z,30.40
2017-12-19T07:59:43.943Z,19.67
2017-12-19T08:02:50.052Z,18.03
2017-12-19T08:05:55.182Z,15.40
2017-12-19T08:09:00.346Z,19.97
2017-12-19T08:12:05.626Z,20.40
2017-12-19T08:15:10.874Z,19.60
2017-12-19T08:18:16.610Z,19.20
2017-12-19T08:21:22.378Z,18.60
2017-12-19T08:24:27.886Z,17.00
2017-12-19T08:27:33.625Z,16.97
2017-12-19T08:30:38.914Z,18.27
2017-12-19T08:33:43.986Z,16.70
2017-12-19T08:36:50.178Z,17.50
2017-12-19T08:39:55.353Z,17.77
2017-12-19T08:43:01.458Z,19.30
2017-12-19T08:46:06.906Z,17.50
2017-12-19T08:49:13.450Z,20.53
2017-12-19T08:52:18.302Z,17.30
2017-12-19T08:55:23.978Z,19.67
2017-12-19T08:58:29.604Z,19.80
2017-12-19T09:01:34.430Z,18.40
2017-12-19T09:04:40.369Z,20.23
2017-12-19T09:07:45.502Z,19.27
2017-12-19T09:10:51.441Z,17.43
2017-12-19T09:13:56.592Z,16.73
2017-12-19T09:17:02.109Z,15.80
2017-12-19T09:20:08.026Z,16.90
2017-12-19T09:23:12.894Z,17.97
2017-12-19T09:26:18.054Z,16.70
2017-12-19T09:29:22.936Z,19.40
2017-12-19T09:32:27.926Z,20.40
2017-12-19T09:35:34.109Z,19.00
2017-12-19T09:38:40.195Z,19.40
2017-12-19T09:41:45.773Z,18.00
2017-12-19T09:44:51.132Z,14.80
2017-12-19T09:47:57.046Z,15.20
2017-12-19T09:51:02.407Z,17.03
2017-12-19T09:54:08.262Z,15.60
2017-12-19T09:57:13.029Z,14.77
2017-12-19T10:00:18.747Z,14.13
2017-12-19T10:03:24.399Z,15.80
2017-12-19T10:06:29.793Z,17.20
2017-12-19T10:09:35.031Z,16.43
2017-12-19T10:12:40.812Z,16.40
2017-12-19T10:15:46.570Z,17.90
2017-12-19T10:18:52.383Z,19.03
2017-12-19T10:21:57.123Z,18.80
2017-12-19T10:25:02.171Z,18.17
2017-12-19T10:28:07.638Z,19.33
2017-12-19T10:31:13.111Z,19.80
2017-12-19T10:34:18.562Z,20.00
2017-12-19T10:37:23.959Z,19.37
2017-12-19T10:40:30.608Z,17.37
2017-12-19T10:43:35.639Z,16.90
2017-12-19T10:46:40.842Z,16.20
2017-12-19T10:49:46.090Z,17.33
2017-12-19T10:52:51.736Z,18.20
2017-12-19T10:55:57.042Z,15.93
2017-12-19T10:59:02.461Z,15.40
2017-12-19T11:02:07.385Z,13.70
2017-12-19T11:05:13.285Z,13.00
2017-12-19T11:08:18.995Z,14.57
2017-12-19T11:11:24.747Z,11.40
2017-12-19T11:14:29.838Z,11.53
2017-12-19T11:17:35.201Z,12.23
2017-12-19T11:20:40.126Z,11.97
2017-12-19T11:23:45.861Z,10.97
2017-12-19T11:26:51.236Z,12.00
2017-12-19T11:29:56.998Z,12.37
2017-12-19T11:33:03.108Z,8.93
2017-12-19T11:36:08.056Z,10.57
2017-12-19T11:39:13.778Z,9.13
2017-12-19T11:42:19.318Z,8.93
2017-12-19T11:45:24.191Z,10.83
2017-12-19T11:48:29.163Z,9.93
2017-12-19T11:51:34.742Z,9.80
2017-12-19T11:54:40.019Z,9.57
2017-12-19T11:57:45.743Z,9.97
2017-12-19T12:00:51.564Z,11.30
2017-12-19T12:03:57.834Z,10.40
2017-12-19T12:07:03.168Z,9.63
2017-12-19T12:10:09.274Z,10.10
2017-12-19T12:13:14.419Z,9.37
2017-12-19T12:16:20.867Z,7.80
2017-12-19T12:19:26.502Z,7.80
2017-12-19T12:22:32.241Z,9.00
2017-12-19T12:25:38.940Z,10.30
2017-12-19T12:28:45.543Z,8.47
2017-12-19T12:31:50.592Z,7.80
2017-12-19T12:34:55.495Z,8.73
2017-12-19T12:38:01.016Z,9.47
2017-12-19T12:41:06.829Z,10.17
2017-12-19T12:44:11.721Z,9.10
2017-12-19T12:47:17.052Z,10.47
2017-12-19T12:50:22.720Z,9.93
2017-12-19T12:53:28.504Z,9.07
2017-12-19T12:56:34.946Z,9.03
2017-12-19T12:59:39.763Z,9.70
2017-12-19T13:02:46.062Z,10.17
2017-12-19T13:05:52.391Z,9.10
2017-12-19T13:09:00.043Z,11.20
2017-12-19T13:12:05.891Z,10.63
2017-12-19T13:15:11.384Z,9.60
2017-12-19T13:18:17.463Z,9.00
2017-12-19T13:21:22.741Z,9.63
2017-12-19T13:24:29.021Z,10.50
2017-12-19T13:27:35.247Z,8.87
2017-12-19T13:30:41.327Z,8.70
2017-12-19T13:33:46.558Z,7.43
2017-12-19T13:36:52.130Z,8.70
2017-12-19T13:39:57.553Z,9.63
2017-12-19T13:43:02.461Z,8.00
2017-12-19T13:46:08.637Z,7.20
2017-12-19T13:49:13.677Z,6.63
2017-12-19T13:52:18.878Z,6.30
2017-12-19T13:55:23.961Z,5.33
2017-12-19T13:58:29.284Z,5.23
2017-12-19T14:01:34.988Z,6.33
2017-12-19T14:04:40.339Z,6.53
2017-12-19T14:07:46.203Z,6.00
2017-12-19T14:10:52.711Z,18.60
2017-12-19T14:13:57.598Z,9.23
2017-12-19T14:17:04.127Z,6.47
2017-12-19T14:20:09.174Z,8.00
2017-12-19T14:23:23.676Z,13.20
2017-12-19T14:26:29.888Z,10.67
2017-12-19T14:29:34.982Z,9.87
2017-12-19T14:32:39.954Z,16.27
2017-12-19T14:35:45.499Z,10.77
2017-12-19T14:38:51.445Z,11.47
2017-12-19T14:41:56.487Z,11.80
2017-12-19T14:45:02.291Z,9.53
2017-12-19T14:48:07.184Z,10.30
2017-12-19T14:51:12.857Z,10.27
2017-12-19T14:54:18.562Z,9.93
2017-12-19T14:57:23.252Z,10.80
2017-12-19T15:00:28.490Z,8.80
2017-12-19T15:03:34.598Z,10.13
2017-12-19T15:06:39.803Z,9.17
2017-12-19T15:09:45.481Z,9.13
2017-12-19T15:12:51.063Z,9.73
2017-12-19T15:15:57.084Z,9.17
2017-12-19T15:19:02.110Z,7.20
2017-12-19T15:22:08.011Z,7.30
2017-12-19T15:25:14.371Z,7.33
2017-12-19T15:28:20.501Z,7.17
2017-12-19T15:31:26.775Z,8.83
2017-12-19T15:34:32.242Z,7.93
2017-12-19T15:37:38.829Z,8.80
2017-12-19T15:40:44.390Z,9.27
2017-12-19T15:43:50.130Z,10.43
2017-12-19T15:46:56.501Z,9.90
2017-12-19T15:50:02.313Z,9.53
2017-12-19T15:53:07.523Z,9.50
2017-12-19T15:56:12.738Z,9.60
2017-12-19T15:59:19.271Z,9.93
2017-12-19T16:02:25.176Z,10.10
2017-12-19T16:05:30.301Z,8.83
2017-12-19T16:08:36.562Z,9.77
2017-12-19T16:11:42.281Z,10.57
2017-12-19T16:14:48.054Z,10.30
2017-12-19T16:17:53.529Z,11.50
2017-12-19T16:20:59.170Z,11.10
2017-12-19T16:24:04.350Z,11.03
2017-12-19T16:27:10.550Z,10.07
2017-12-19T16:30:15.490Z,10.87
2017-12-19T16:33:21.078Z,11.40
2017-12-19T16:36:27.051Z,11.30
2017-12-19T16:39:32.586Z,9.73
2017-12-19T16:42:38.116Z,11.53
2017-12-19T16:45:43.950Z,12.00
2017-12-19T16:48:49.483Z,13.20
2017-12-19T16:51:55.938Z,12.00
2017-12-19T16:55:01.408Z,11.70
2017-12-19T16:58:06.818Z,11.30
2017-12-19T17:01:12.334Z,13.30
2017-12-19T17:04:18.313Z,11.83
2017-12-19T17:07:23.246Z,12.80
2017-12-19T17:10:29.600Z,12.50
2017-12-19T17:13:34.931Z,12.00
2017-12-19T17:16:39.763Z,13.90
2017-12-19T17:19:45.294Z,13.10
2017-12-19T17:22:50.766Z,11.17
2017-12-19T17:25:56.564Z,12.50
2017-12-19T17:29:02.330Z,11.57
2017-12-19T17:32:08.022Z,11.10
2017-12-19T17:35:13.741Z,11.20
2017-12-19T17:38:20.390Z,12.13
2017-12-19T17:41:25.794Z,14.83
2017-12-19T17:44:31.354Z,13.83
2017-12-19T17:47:37.481Z,14.40
2017-12-19T17:50:43.472Z,13.67
2017-12-19T17:53:49.082Z,14.37
2017-12-19T17:56:54.812Z,14.40
2017-12-19T18:00:00.002Z,13.93
2017-12-19T18:03:05.070Z,14.70
2017-12-19T18:06:10.750Z,13.90
2017-12-19T18:09:15.747Z,14.63
2017-12-19T18:12:21.253Z,12.70
2017-12-19T18:15:26.379Z,15.50
2017-12-19T18:18:31.916Z,13.50
2017-12-19T18:21:36.806Z,13.97
2017-12-19T18:24:41.975Z,14.10
2017-12-19T18:27:48.230Z,14.70
2017-12-19T18:30:53.542Z,14.40
2017-12-19T18:33:59.255Z,15.13
2017-12-19T18:37:05.810Z,13.70
2017-12-19T18:40:10.874Z,14.00
2017-12-19T18:43:16.402Z,14.40
2017-12-19T18:46:22.186Z,14.73
2017-12-19T18:49:27.345Z,15.17
2017-12-19T18:52:32.621Z,16.80
2017-12-19T18:55:38.868Z,17.13
2017-12-19T18:58:44.092Z,15.33
2017-12-19T19:01:49.458Z,14.30
2017-12-19T19:04:55.363Z,14.97
2017-12-19T19:08:01.138Z,16.27
2017-12-19T19:11:07.222Z,14.70
2017-12-19T19:14:13.531Z,14.87
2017-12-19T19:17:18.770Z,14.90
2017-12-19T19:20:24.130Z,15.60
2017-12-19T19:23:29.672Z,15.73
2017-12-19T19:26:34.607Z,15.83
2017-12-19T19:29:40.306Z,16.67
2017-12-19T19:32:45.959Z,15.60
2017-12-19T19:35:51.398Z,15.80
2017-12-19T19:38:56.712Z,15.53
2017-12-19T19:42:02.852Z,14.80
2017-12-19T19:45:08.588Z,15.87
2017-12-19T19:48:13.912Z,15.77
2017-12-19T19:51:19.674Z,14.80
2017-12-19T19:54:26.047Z,15.23
2017-12-19T19:57:31.306Z,15.07
2017-12-19T20:00:37.479Z,15.00
2017-12-19T20:03:42.913Z,14.67
2017-12-19T20:06:48.578Z,14.43
2017-12-19T20:09:54.466Z,13.50
2017-12-19T20:12:59.356Z,13.07
2017-12-19T20:16:04.754Z,13.80
2017-12-19T20:19:11.286Z,12.93
2017-12-19T20:22:16.370Z,13.80
2017-12-19T20:25:21.275Z,14.07
2017-12-19T20:28:27.840Z,14.27
2017-12-19T20:31:34.454Z,14.30
2017-12-19T20:34:40.749Z,14.53
2017-12-19T20:37:46.162Z,13.00
2017-12-19T20:40:52.458Z,13.40
2017-12-19T20:43:58.013Z,12.90
2017-12-19T20:47:03.727Z,13.60
2017-12-19T20:50:09.691Z,12.73
2017-12-19T20:53:14.726Z,11.97
2017-12-19T20:56:20.342Z,12.27
2017-12-19T20:59:25.922Z,13.30
2017-12-19T21:02:31.030Z,12.70
2017-12-19T21:05:36.225Z,12.53
2017-12-19T21:08:41.473Z,13.07
2017-12-19T21:11:46.752Z,12.73
2017-12-19T21:14:52.592Z,12.47
2017-12-19T21:17:57.985Z,11.43
2017-12-19T21:21:03.693Z,11.60
2017-12-19T21:24:08.866Z,12.80
2017-12-19T21:27:14.759Z,13.13
2017-12-19T21:30:20.059Z,13.80
2017-12-19T21:33:25.814Z,14.70
2017-12-19T21:36:31.305Z,14.10
2017-12-19T21:39:36.662Z,13.70
2017-12-19T21:42:42.522Z,13.93
2017-12-19T21:45:49.054Z,14.47
2017-12-19T21:48:54.546Z,13.83
2017-12-19T21:52:00.772Z,13.50
2017-12-19T21:55:05.682Z,13.20
2017-12-19T21:58:11.489Z,13.10
2017-12-19T22:01:18.019Z,11.63
2017-12-19T22:04:23.735Z,12.93
2017-12-19T22:07:29.290Z,14.50
2017-12-19T22:10:34.044Z,13.80
2017-12-19T22:13:39.222Z,13.70
2017-12-19T22:16:45.085Z,12.63
2017-12-19T22:19:50.761Z,13.07
2017-12-19T22:22:55.662Z,12.90
2017-12-19T22:26:01.431Z,13.40
2017-12-19T22:29:06.781Z,13.30
2017-12-19T22:32:12.098Z,14.00
2017-12-19T22:35:17.654Z,12.23
2017-12-19T22:38:23.374Z,12.30
2017-12-19T22:41:28.385Z,13.97
2017-12-19T22:44:33.574Z,14.30
2017-12-19T22:47:38.526Z,12.73
2017-12-19T22:50:44.213Z,12.37
2017-12-19T22:53:50.838Z,12.70
2017-12-19T22:56:56.429Z,13.60
2017-12-19T23:00:01.691Z,11.70
2017-12-19T23:03:06.670Z,12.60
2017-12-19T23:06:11.802Z,11.00
2017-12-19T23:09:16.770Z,11.50
2017-12-19T23:12:22.213Z,12.90
2017-12-19T23:15:28.722Z,11.30
2017-12-19T23:18:34.501Z,11.70
2017-12-19T23:21:39.674Z,11.90
2017-12-19T23:24:45.078Z,12.17
2017-12-19T23:27:50.787Z,11.13
2017-12-19T23:30:57.472Z,12.20
2017-12-19T23:34:03.171Z,11.53
2017-12-19T23:37:09.197Z,11.53
2017-12-19T23:40:14.406Z,12.20
2017-12-19T23:43:20.406Z,12.20
2017-12-19T23:46:25.185Z,13.10
2017-12-19T23:49:30.265Z,12.60
2017-12-19T23:52:36.236Z,12.80
2017-12-19T23:55:41.138Z,12.90
2017-12-19T23:58:46.210Z,12.67
